sensor_id;sensor_type;location;lat;lon;timestamp;pressure;altitude;pressure_sealevel;temperature;humidity
14117;BME280;7137;51.436;6.544;2023-01-30T00:02:40;101487.19;;;4.14;100.00
14117;BME280;7137;51.436;6.544;2023-01-30T00:05:42;101467.41;;;4.21;100.00
14117;BME280;7137;51.436;6.544;2023-01-30T00:08:43;101465.78;;;4.34;100.00
14117;BME280;7137;51.436;6.544;2023-01-30T00:11:46;101451.13;;;4.34;100.00
14117;BME280;7137;51.436;6.544;2023-01-30T00:14:48;101463.25;;;4.38;100.00
14117;BME280;7137;51.436;6.544;2023-01-30T00:17:49;101459.72;;;4.26;100.00
14117;BME280;7137;51.436;6.544;2023-01-30T00:20:54;101441.69;;;4.44;100.00
14117;BME280;7137;51.436;6.544;2023-01-30T00:23:56;101434.72;;;4.28;100.00
14117;BME280;7137;51.436;6.544;2023-01-30T00:27:00;101440.78;;;4.33;100.00
14117;BME280;7137;51.436;6.544;2023-01-30T00:30:02;101433.03;;;4.34;100.00
14117;BME280;7137;51.436;6.544;2023-01-30T00:33:06;101421.88;;;4.40;100.00
14117;BME280;7137;51.436;6.544;2023-01-30T00:36:09;101407.28;;;4.54;100.00
14117;BME280;7137;51.436;6.544;2023-01-30T00:39:11;101399.47;;;4.42;100.00
14117;BME280;7137;51.436;6.544;2023-01-30T00:42:14;101397.72;;;4.39;100.00
14117;BME280;7137;51.436;6.544;2023-01-30T00:45:33;101392.56;;;4.48;100.00
14117;BME280;7137;51.436;6.544;2023-01-30T00:48:52;101396.91;;;4.51;100.00
14117;BME280;7137;51.436;6.544;2023-01-30T00:51:54;101394.34;;;4.51;100.00
14117;BME280;7137;51.436;6.544;2023-01-30T00:54:55;101383.13;;;4.51;100.00
14117;BME280;7137;51.436;6.544;2023-01-30T00:57:58;101383.19;;;4.69;100.00
14117;BME280;7137;51.436;6.544;2023-01-30T01:01:00;101389.16;;;4.57;100.00
14117;BME280;7137;51.436;6.544;2023-01-30T01:04:01;101378.06;;;4.80;100.00
14117;BME280;7137;51.436;6.544;2023-01-30T01:07:03;101384.09;;;4.91;100.00
14117;BME280;7137;51.436;6.544;2023-01-30T01:10:07;101382.38;;;4.84;100.00
14117;BME280;7137;51.436;6.544;2023-01-30T01:13:10;101359.94;;;4.80;100.00
14117;BME280;7137;51.436;6.544;2023-01-30T01:16:11;101358.22;;;4.80;100.00
14117;BME280;7137;51.436;6.544;2023-01-30T01:19:13;101360.81;;;4.82;100.00
14117;BME280;7137;51.436;6.544;2023-01-30T01:22:15;101359.94;;;4.89;100.00
14117;BME280;7137;51.436;6.544;2023-01-30T01:25:16;101362.53;;;4.90;100.00
14117;BME280;7137;51.436;6.544;2023-01-30T01:28:20;101357.31;;;4.76;100.00
14117;BME280;7137;51.436;6.544;2023-01-30T01:31:21;101352.19;;;4.96;100.00
14117;BME280;7137;51.436;6.544;2023-01-30T01:34:24;101358.28;;;5.07;100.00
14117;BME280;7137;51.436;6.544;2023-01-30T01:37:26;101350.50;;;5.07;100.00
14117;BME280;7137;51.436;6.544;2023-01-30T01:40:27;101359.13;;;5.13;100.00
14117;BME280;7137;51.436;6.544;2023-01-30T01:44:01;101355.66;;;5.18;100.00
14117;BME280;7137;51.436;6.544;2023-01-30T01:47:02;101346.19;;;5.25;100.00
14117;BME280;7137;51.436;6.544;2023-01-30T01:50:05;101353.09;;;5.38;100.00
14117;BME280;7137;51.436;6.544;2023-01-30T01:53:11;101347.94;;;5.35;100.00
14117;BME280;7137;51.436;6.544;2023-01-30T01:56:14;101339.28;;;5.45;100.00
14117;BME280;7137;51.436;6.544;2023-01-30T01:59:22;101339.28;;;5.45;100.00
14117;BME280;7137;51.436;6.544;2023-01-30T02:02:25;101334.97;;;5.50;100.00
14117;BME280;7137;51.436;6.544;2023-01-30T02:05:31;101328.94;;;5.39;100.00
14117;BME280;7137;51.436;6.544;2023-01-30T02:08:37;101329.75;;;5.49;100.00
14117;BME280;7137;51.436;6.544;2023-01-30T02:11:45;101322.00;;;5.33;100.00
14117;BME280;7137;51.436;6.544;2023-01-30T02:14:49;101303.00;;;5.44;100.00
14117;BME280;7137;51.436;6.544;2023-01-30T02:17:53;101295.25;;;5.36;100.00
14117;BME280;7137;51.436;6.544;2023-01-30T02:21:09;101285.78;;;5.35;100.00
14117;BME280;7137;51.436;6.544;2023-01-30T02:24:31;101283.16;;;5.33;100.00
14117;BME280;7137;51.436;6.544;2023-01-30T02:27:50;101274.53;;;5.38;100.00
14117;BME280;7137;51.436;6.544;2023-01-30T02:31:18;101264.16;;;5.51;100.00
14117;BME280;7137;51.436;6.544;2023-01-30T02:34:33;101257.22;;;5.58;100.00
14117;BME280;7137;51.436;6.544;2023-01-30T02:37:45;101255.53;;;5.51;100.00
14117;BME280;7137;51.436;6.544;2023-01-30T02:40:59;101253.78;;;5.42;100.00
14117;BME280;7137;51.436;6.544;2023-01-30T02:44:04;101245.97;;;5.59;100.00
14117;BME280;7137;51.436;6.544;2023-01-30T02:47:10;101245.06;;;5.80;100.00
14117;BME280;7137;51.436;6.544;2023-01-30T02:50:18;101247.69;;;5.63;100.00
14117;BME280;7137;51.436;6.544;2023-01-30T02:53:21;101250.28;;;5.60;100.00
14117;BME280;7137;51.436;6.544;2023-01-30T02:56:23;101248.53;;;5.79;100.00
14117;BME280;7137;51.436;6.544;2023-01-30T02:59:28;101233.00;;;5.70;100.00
14117;BME280;7137;51.436;6.544;2023-01-30T03:02:48;101244.25;;;5.64;100.00
14117;BME280;7137;51.436;6.544;2023-01-30T03:06:28;101242.53;;;5.57;100.00
14117;BME280;7137;51.436;6.544;2023-01-30T03:09:43;101239.03;;;5.72;100.00
14117;BME280;7137;51.436;6.544;2023-01-30T03:12:53;101229.56;;;5.69;100.00
14117;BME280;7137;51.436;6.544;2023-01-30T03:16:02;101218.31;;;5.73;100.00
14117;BME280;7137;51.436;6.544;2023-01-30T03:19:09;101210.53;;;5.72;100.00
14117;BME280;7137;51.436;6.544;2023-01-30T03:22:11;101204.47;;;5.74;100.00
14117;BME280;7137;51.436;6.544;2023-01-30T03:25:17;101192.41;;;5.67;100.00
14117;BME280;7137;51.436;6.544;2023-01-30T03:28:20;101213.09;;;5.84;100.00
14117;BME280;7137;51.436;6.544;2023-01-30T03:31:21;101212.25;;;5.77;100.00
14117;BME280;7137;51.436;6.544;2023-01-30T03:34:24;101208.78;;;5.75;100.00
14117;BME280;7137;51.436;6.544;2023-01-30T03:37:26;101192.41;;;5.62;100.00
14117;BME280;7137;51.436;6.544;2023-01-30T03:40:28;101212.25;;;5.80;100.00
14117;BME280;7137;51.436;6.544;2023-01-30T03:43:29;101190.63;;;5.81;100.00
14117;BME280;7137;51.436;6.544;2023-01-30T03:46:31;101190.59;;;5.87;100.00
14117;BME280;7137;51.436;6.544;2023-01-30T03:49:34;101187.19;;;5.75;100.00
14117;BME280;7137;51.436;6.544;2023-01-30T03:52:36;101186.34;;;5.79;100.00
14117;BME280;7137;51.436;6.544;2023-01-30T03:55:37;101166.47;;;5.73;100.00
14117;BME280;7137;51.436;6.544;2023-01-30T03:58:39;101166.47;;;5.73;100.00
14117;BME280;7137;51.436;6.544;2023-01-30T04:01:41;101169.03;;;5.76;100.00
14117;BME280;7137;51.436;6.544;2023-01-30T04:04:43;101157.75;;;5.86;100.00
14117;BME280;7137;51.436;6.544;2023-01-30T04:07:45;101155.22;;;5.82;100.00
14117;BME280;7137;51.436;6.544;2023-01-30T04:10:47;101173.38;;;5.74;100.00
14117;BME280;7137;51.436;6.544;2023-01-30T04:13:48;101161.34;;;5.64;100.00
14117;BME280;7137;51.436;6.544;2023-01-30T04:16:50;101163.03;;;5.68;100.00
14117;BME280;7137;51.436;6.544;2023-01-30T04:19:52;101158.66;;;5.81;100.00
14117;BME280;7137;51.436;6.544;2023-01-30T04:22:54;101153.50;;;5.78;100.00
14117;BME280;7137;51.436;6.544;2023-01-30T04:25:56;101144.78;;;5.89;100.00
14117;BME280;7137;51.436;6.544;2023-01-30T04:28:57;101149.19;;;5.71;100.00
14117;BME280;7137;51.436;6.544;2023-01-30T04:31:59;101153.47;;;5.91;100.00
14117;BME280;7137;51.436;6.544;2023-01-30T04:35:03;101147.34;;;6.00;100.00
14117;BME280;7137;51.436;6.544;2023-01-30T04:38:04;101137.09;;;5.74;100.00
14117;BME280;7137;51.436;6.544;2023-01-30T04:41:06;101136.16;;;5.86;100.00
14117;BME280;7137;51.436;6.544;2023-01-30T04:44:08;101137.91;;;5.84;100.00
14117;BME280;7137;51.436;6.544;2023-01-30T04:47:09;101138.75;;;5.93;100.00
14117;BME280;7137;51.436;6.544;2023-01-30T04:50:13;101149.16;;;5.83;100.00
14117;BME280;7137;51.436;6.544;2023-01-30T04:53:16;101136.16;;;5.95;100.00
14117;BME280;7137;51.436;6.544;2023-01-30T04:56:17;101137.88;;;5.98;100.00
14117;BME280;7137;51.436;6.544;2023-01-30T04:59:22;101137.88;;;5.94;100.00
14117;BME280;7137;51.436;6.544;2023-01-30T05:02:23;101147.28;;;6.14;100.00
14117;BME280;7137;51.436;6.544;2023-01-30T05:05:26;101138.66;;;6.10;100.00
14117;BME280;7137;51.436;6.544;2023-01-30T05:08:28;101146.38;;;6.16;100.00
14117;BME280;7137;51.436;6.544;2023-01-30T05:11:30;101140.38;;;6.13;100.00
14117;BME280;7137;51.436;6.544;2023-01-30T05:14:32;101131.75;;;6.05;100.00
14117;BME280;7137;51.436;6.544;2023-01-30T05:17:35;101130.81;;;6.16;100.00
14117;BME280;7137;51.436;6.544;2023-01-30T05:20:38;101126.38;;;6.35;100.00
14117;BME280;7137;51.436;6.544;2023-01-30T05:23:40;101132.44;;;6.33;100.00
14117;BME280;7137;51.436;6.544;2023-01-30T05:26:42;101131.75;;;6.08;100.00
14117;BME280;7137;51.436;6.544;2023-01-30T05:29:43;101143.72;;;6.27;100.00
14117;BME280;7137;51.436;6.544;2023-01-30T05:32:45;101130.69;;;6.33;100.00
14117;BME280;7137;51.436;6.544;2023-01-30T05:35:49;101122.97;;;6.27;100.00
14117;BME280;7137;51.436;6.544;2023-01-30T05:38:50;101133.41;;;6.21;100.00
14117;BME280;7137;51.436;6.544;2023-01-30T05:41:52;101126.34;;;6.38;100.00
14117;BME280;7137;51.436;6.544;2023-01-30T05:44:53;101135.06;;;6.28;100.00
14117;BME280;7137;51.436;6.544;2023-01-30T05:47:55;101129.78;;;6.42;100.00
14117;BME280;7137;51.436;6.544;2023-01-30T05:50:58;101144.47;;;6.43;100.00
14117;BME280;7137;51.436;6.544;2023-01-30T05:54:00;101135.00;;;6.39;100.00
14117;BME280;7137;51.436;6.544;2023-01-30T05:57:01;101138.50;;;6.32;100.00
14117;BME280;7137;51.436;6.544;2023-01-30T06:00:05;101128.09;;;6.33;100.00
14117;BME280;7137;51.436;6.544;2023-01-30T06:03:07;101135.84;;;6.42;100.00
14117;BME280;7137;51.436;6.544;2023-01-30T06:06:11;101134.06;;;6.49;100.00
14117;BME280;7137;51.436;6.544;2023-01-30T06:09:12;101139.16;;;6.58;100.00
14117;BME280;7137;51.436;6.544;2023-01-30T06:12:14;101154.72;;;6.63;100.00
14117;BME280;7137;51.436;6.544;2023-01-30T06:15:16;101166.00;;;6.55;100.00
14117;BME280;7137;51.436;6.544;2023-01-30T06:18:17;101162.56;;;6.53;100.00
14117;BME280;7137;51.436;6.544;2023-01-30T06:21:20;101144.41;;;6.53;100.00
14117;BME280;7137;51.436;6.544;2023-01-30T06:24:22;101134.84;;;6.62;100.00
14117;BME280;7137;51.436;6.544;2023-01-30T06:27:23;101139.13;;;6.66;100.00
14117;BME280;7137;51.436;6.544;2023-01-30T06:30:25;101143.41;;;6.68;100.00
14117;BME280;7137;51.436;6.544;2023-01-30T06:33:26;101130.50;;;6.59;100.00
14117;BME280;7137;51.436;6.544;2023-01-30T06:36:29;101141.63;;;6.73;100.00
14117;BME280;7137;51.436;6.544;2023-01-30T06:39:31;101145.88;;;6.82;100.00
14117;BME280;7137;51.436;6.544;2023-01-30T06:42:32;101157.19;;;6.75;100.00
14117;BME280;7137;51.436;6.544;2023-01-30T06:45:34;101165.84;;;6.77;100.00
14117;BME280;7137;51.436;6.544;2023-01-30T06:48:36;101168.34;;;6.84;100.00
14117;BME280;7137;51.436;6.544;2023-01-30T06:51:39;101171.03;;;6.77;100.00
14117;BME280;7137;51.436;6.544;2023-01-30T06:54:40;101175.31;;;6.81;100.00
14117;BME280;7137;51.436;6.544;2023-01-30T06:57:42;101168.38;;;6.83;100.00
14117;BME280;7137;51.436;6.544;2023-01-30T07:00:44;101174.47;;;6.80;100.00
14117;BME280;7137;51.436;6.544;2023-01-30T07:03:45;101166.66;;;6.80;100.00
14117;BME280;7137;51.436;6.544;2023-01-30T07:06:49;101170.16;;;6.79;100.00
14117;BME280;7137;51.436;6.544;2023-01-30T07:09:51;101161.47;;;6.80;100.00
14117;BME280;7137;51.436;6.544;2023-01-30T07:12:53;101163.25;;;6.72;100.00
14117;BME280;7137;51.436;6.544;2023-01-30T07:15:54;101173.75;;;6.63;100.00
14117;BME280;7137;51.436;6.544;2023-01-30T07:18:56;101180.72;;;6.53;100.00
14117;BME280;7137;51.436;6.544;2023-01-30T07:21:59;101188.50;;;6.55;100.00
14117;BME280;7137;51.436;6.544;2023-01-30T07:25:01;101188.50;;;6.57;100.00
14117;BME280;7137;51.436;6.544;2023-01-30T07:28:03;101179.88;;;6.51;100.00
14117;BME280;7137;51.436;6.544;2023-01-30T07:31:04;101172.06;;;6.56;100.00
14117;BME280;7137;51.436;6.544;2023-01-30T07:34:06;101180.66;;;6.61;100.00
14117;BME280;7137;51.436;6.544;2023-01-30T07:37:09;101191.16;;;6.49;100.00
14117;BME280;7137;51.436;6.544;2023-01-30T07:40:11;101197.13;;;6.57;100.00
14117;BME280;7137;51.436;6.544;2023-01-30T07:43:13;101197.25;;;6.42;100.00
14117;BME280;7137;51.436;6.544;2023-01-30T07:46:15;101198.16;;;6.36;100.00
14117;BME280;7137;51.436;6.544;2023-01-30T07:49:16;101197.31;;;6.31;100.00
14117;BME280;7137;51.436;6.544;2023-01-30T07:52:19;101186.94;;;6.30;100.00
14117;BME280;7137;51.436;6.544;2023-01-30T07:55:21;101182.59;;;6.33;100.00
14117;BME280;7137;51.436;6.544;2023-01-30T07:58:22;101195.56;;;6.33;100.00
14117;BME280;7137;51.436;6.544;2023-01-30T08:01:24;101203.34;;;6.33;100.00
14117;BME280;7137;51.436;6.544;2023-01-30T08:04:26;101210.22;;;6.40;100.00
14117;BME280;7137;51.436;6.544;2023-01-30T08:07:29;101218.84;;;6.48;100.00
14117;BME280;7137;51.436;6.544;2023-01-30T08:10:30;101224.78;;;6.61;100.00
14117;BME280;7137;51.436;6.544;2023-01-30T08:13:32;101215.94;;;6.87;100.00
14117;BME280;7137;51.436;6.544;2023-01-30T08:16:34;101207.97;;;7.08;100.00
14117;BME280;7137;51.436;6.544;2023-01-30T08:19:36;101220.16;;;6.98;99.15
14117;BME280;7137;51.436;6.544;2023-01-30T08:22:39;101222.66;;;7.10;99.34
14117;BME280;7137;51.436;6.544;2023-01-30T08:25:40;101233.06;;;7.09;99.36
14117;BME280;7137;51.436;6.544;2023-01-30T08:28:42;101224.41;;;7.08;98.83
14117;BME280;7137;51.436;6.544;2023-01-30T08:31:43;101231.19;;;7.25;97.71
14117;BME280;7137;51.436;6.544;2023-01-30T08:34:45;101238.13;;;7.26;97.32
14117;BME280;7137;51.436;6.544;2023-01-30T08:37:48;101239.91;;;7.21;96.46
14117;BME280;7137;51.436;6.544;2023-01-30T08:40:49;101251.13;;;7.23;96.71
14117;BME280;7137;51.436;6.544;2023-01-30T08:43:51;101237.03;;;7.48;95.17
14117;BME280;7137;51.436;6.544;2023-01-30T08:46:52;101245.84;;;7.33;95.80
14117;BME280;7137;51.436;6.544;2023-01-30T08:49:54;101255.47;;;7.22;94.96
14117;BME280;7137;51.436;6.544;2023-01-30T08:53:02;101262.47;;;7.14;94.37
14117;BME280;7137;51.436;6.544;2023-01-30T08:56:04;101284.06;;;7.18;95.42
14117;BME280;7137;51.436;6.544;2023-01-30T08:59:06;101284.13;;;7.11;93.62
14117;BME280;7137;51.436;6.544;2023-01-30T09:02:08;101294.34;;;7.31;93.66
14117;BME280;7137;51.436;6.544;2023-01-30T09:05:10;101289.16;;;8.13;89.39
14117;BME280;7137;51.436;6.544;2023-01-30T09:08:13;101265.97;;;7.94;88.11
14117;BME280;7137;51.436;6.544;2023-01-30T09:11:14;101270.59;;;7.69;87.67
14117;BME280;7137;51.436;6.544;2023-01-30T09:14:16;101268.81;;;8.47;84.28
14117;BME280;7137;51.436;6.544;2023-01-30T09:17:19;101265.72;;;8.14;86.12
14117;BME280;7137;51.436;6.544;2023-01-30T09:20:20;101271.47;;;9.02;81.98
14117;BME280;7137;51.436;6.544;2023-01-30T09:23:23;101271.66;;;8.90;82.76
14117;BME280;7137;51.436;6.544;2023-01-30T09:26:25;101273.19;;;8.45;83.15
14117;BME280;7137;51.436;6.544;2023-01-30T09:29:27;101285.47;;;8.35;83.24
14117;BME280;7137;51.436;6.544;2023-01-30T09:32:28;101287.72;;;7.90;85.09
14117;BME280;7137;51.436;6.544;2023-01-30T09:35:30;101288.41;;;8.04;84.34
14117;BME280;7137;51.436;6.544;2023-01-30T09:38:33;101292.72;;;8.07;84.02
14117;BME280;7137;51.436;6.544;2023-01-30T09:41:55;101294.69;;;7.88;83.19
14117;BME280;7137;51.436;6.544;2023-01-30T09:48:30;101300.09;;;8.45;82.29
14117;BME280;7137;51.436;6.544;2023-01-30T09:51:41;101306.94;;;8.51;79.99
14117;BME280;7137;51.436;6.544;2023-01-30T09:54:46;101307.66;;;7.87;80.70
14117;BME280;7137;51.436;6.544;2023-01-30T09:57:48;101312.03;;;7.85;82.37
14117;BME280;7137;51.436;6.544;2023-01-30T10:00:54;101312.16;;;7.76;82.49
14117;BME280;7137;51.436;6.544;2023-01-30T10:04:12;101322.59;;;7.69;83.51
14117;BME280;7137;51.436;6.544;2023-01-30T10:07:23;101332.19;;;7.64;82.42
14117;BME280;7137;51.436;6.544;2023-01-30T10:10:45;101331.28;;;7.68;80.89
14117;BME280;7137;51.436;6.544;2023-01-30T10:14:03;101320.88;;;7.67;82.17
14117;BME280;7137;51.436;6.544;2023-01-30T10:17:22;101334.81;;;7.60;81.65
14117;BME280;7137;51.436;6.544;2023-01-30T10:20:37;101321.81;;;7.63;81.30
14117;BME280;7137;51.436;6.544;2023-01-30T10:23:51;101329.63;;;7.58;80.58
14117;BME280;7137;51.436;6.544;2023-01-30T10:26:57;101325.38;;;7.51;80.15
14117;BME280;7137;51.436;6.544;2023-01-30T10:30:01;101338.34;;;7.53;81.02
14117;BME280;7137;51.436;6.544;2023-01-30T10:33:05;101317.50;;;7.59;80.66
14117;BME280;7137;51.436;6.544;2023-01-30T10:36:11;101330.47;;;7.59;80.21
14117;BME280;7137;51.436;6.544;2023-01-30T10:39:21;101328.75;;;7.58;79.26
14117;BME280;7137;51.436;6.544;2023-01-30T10:42:29;101320.94;;;7.64;80.63
14117;BME280;7137;51.436;6.544;2023-01-30T10:45:37;101320.97;;;7.58;79.62
14117;BME280;7137;51.436;6.544;2023-01-30T10:48:52;101322.63;;;7.66;80.35
14117;BME280;7137;51.436;6.544;2023-01-30T10:51:59;101331.25;;;7.70;78.82
14117;BME280;7137;51.436;6.544;2023-01-30T10:55:09;101332.94;;;7.76;78.69
14117;BME280;7137;51.436;6.544;2023-01-30T10:58:19;101339.09;;;7.67;78.53
14117;BME280;7137;51.436;6.544;2023-01-30T11:01:31;101337.28;;;7.77;78.67
14117;BME280;7137;51.436;6.544;2023-01-30T11:04:39;101335.56;;;7.72;78.42
14117;BME280;7137;51.436;6.544;2023-01-30T11:07:46;101344.28;;;7.68;78.60
14117;BME280;7137;51.436;6.544;2023-01-30T11:10:49;101331.25;;;7.70;77.72
14117;BME280;7137;51.436;6.544;2023-01-30T11:14:00;101343.28;;;7.82;77.99
14117;BME280;7137;51.436;6.544;2023-01-30T11:17:01;101338.00;;;7.89;78.29
14117;BME280;7137;51.436;6.544;2023-01-30T11:20:08;101341.47;;;7.90;77.73
14117;BME280;7137;51.436;6.544;2023-01-30T11:23:23;101345.78;;;7.91;77.46
14117;BME280;7137;51.436;6.544;2023-01-30T11:26:29;101343.09;;;7.98;77.04
14117;BME280;7137;51.436;6.544;2023-01-30T11:29:33;101339.63;;;7.98;76.77
14117;BME280;7137;51.436;6.544;2023-01-30T11:32:35;101338.84;;;7.93;76.19
14117;BME280;7137;51.436;6.544;2023-01-30T11:35:41;101351.13;;;7.79;76.27
14117;BME280;7137;51.436;6.544;2023-01-30T11:38:55;101345.00;;;7.83;76.34
14117;BME280;7137;51.436;6.544;2023-01-30T11:42:00;101356.34;;;7.74;77.58
14117;BME280;7137;51.436;6.544;2023-01-30T11:45:10;101356.25;;;7.83;76.35
14117;BME280;7137;51.436;6.544;2023-01-30T11:48:15;101348.28;;;8.03;76.33
14117;BME280;7137;51.436;6.544;2023-01-30T11:51:20;101350.66;;;8.21;75.49
14117;BME280;7137;51.436;6.544;2023-01-30T11:54:27;101350.84;;;8.04;75.13
14117;BME280;7137;51.436;6.544;2023-01-30T11:57:38;101340.31;;;8.14;75.55
14117;BME280;7137;51.436;6.544;2023-01-30T12:00:46;101347.97;;;8.30;74.45
14117;BME280;7137;51.436;6.544;2023-01-30T12:03:50;101345.28;;;8.38;74.23
14117;BME280;7137;51.436;6.544;2023-01-30T12:07:04;101343.66;;;8.26;74.55
14117;BME280;7137;51.436;6.544;2023-01-30T12:10:28;101354.22;;;8.11;74.41
14117;BME280;7137;51.436;6.544;2023-01-30T12:13:32;101341.16;;;8.19;75.04
14117;BME280;7137;51.436;6.544;2023-01-30T12:16:47;101343.66;;;8.26;74.31
14117;BME280;7137;51.436;6.544;2023-01-30T12:19:57;101354.75;;;8.44;73.79
14117;BME280;7137;51.436;6.544;2023-01-30T12:23:10;101349.53;;;8.47;74.06
14117;BME280;7137;51.436;6.544;2023-01-30T12:26:16;101359.06;;;8.48;73.76
14117;BME280;7137;51.436;6.544;2023-01-30T12:29:25;101345.13;;;8.52;74.22
14117;BME280;7137;51.436;6.544;2023-01-30T12:32:33;101341.69;;;8.48;73.82
14117;BME280;7137;51.436;6.544;2023-01-30T12:35:51;101346.03;;;8.49;74.05
14117;BME280;7137;51.436;6.544;2023-01-30T12:39:05;101360.09;;;8.35;73.36
14117;BME280;7137;51.436;6.544;2023-01-30T12:42:23;101354.75;;;8.42;74.27
14117;BME280;7137;51.436;6.544;2023-01-30T12:45:30;101359.84;;;8.53;72.95
14117;BME280;7137;51.436;6.544;2023-01-30T12:48:45;101369.44;;;8.51;73.05
14117;BME280;7137;51.436;6.544;2023-01-30T12:52:01;101370.97;;;8.66;71.28
14117;BME280;7137;51.436;6.544;2023-01-30T12:55:20;101361.63;;;8.49;71.70
14117;BME280;7137;51.436;6.544;2023-01-30T12:58:27;101361.84;;;8.31;71.56
14117;BME280;7137;51.436;6.544;2023-01-30T13:01:39;101370.38;;;8.42;71.51
14117;BME280;7137;51.436;6.544;2023-01-30T13:04:51;101365.16;;;8.47;72.19
14117;BME280;7137;51.436;6.544;2023-01-30T13:08:07;101382.50;;;8.48;72.08
14117;BME280;7137;51.436;6.544;2023-01-30T13:11:25;101375.66;;;8.38;71.74
14117;BME280;7137;51.436;6.544;2023-01-30T13:14:35;101385.25;;;8.34;71.51
14117;BME280;7137;51.436;6.544;2023-01-30T13:17:45;101386.88;;;8.41;71.26
14117;BME280;7137;51.436;6.544;2023-01-30T13:20:59;101398.16;;;8.42;71.31
14117;BME280;7137;51.436;6.544;2023-01-30T13:24:15;101395.53;;;8.43;71.18
14117;BME280;7137;51.436;6.544;2023-01-30T13:27:19;101394.66;;;8.47;71.59
14117;BME280;7137;51.436;6.544;2023-01-30T13:30:22;101407.63;;;8.49;71.36
14117;BME280;7137;51.436;6.544;2023-01-30T13:33:31;101405.63;;;8.71;70.96
14117;BME280;7137;51.436;6.544;2023-01-30T13:36:39;101402.31;;;8.58;71.00
14117;BME280;7137;51.436;6.544;2023-01-30T13:39:46;101414.56;;;8.51;71.19
14117;BME280;7137;51.436;6.544;2023-01-30T13:42:52;101418.97;;;8.46;71.92
14117;BME280;7137;51.436;6.544;2023-01-30T13:45:58;101410.97;;;8.58;71.76
14117;BME280;7137;51.436;6.544;2023-01-30T13:49:06;101420.38;;;8.70;71.97
14117;BME280;7137;51.436;6.544;2023-01-30T13:52:19;101438.78;;;8.56;71.06
14117;BME280;7137;51.436;6.544;2023-01-30T13:55:29;101431.94;;;8.48;70.24
14117;BME280;7137;51.436;6.544;2023-01-30T13:58:41;101447.63;;;8.42;71.35
14117;BME280;7137;51.436;6.544;2023-01-30T14:02:07;101455.38;;;8.49;71.88
14117;BME280;7137;51.436;6.544;2023-01-30T14:05:10;101465.75;;;8.51;71.88
14117;BME280;7137;51.436;6.544;2023-01-30T14:08:16;101460.63;;;8.43;71.69
14117;BME280;7137;51.436;6.544;2023-01-30T14:11:26;101473.69;;;8.39;72.01
14117;BME280;7137;51.436;6.544;2023-01-30T14:14:30;101476.34;;;8.36;73.06
14117;BME280;7137;51.436;6.544;2023-01-30T14:17:33;101470.47;;;8.09;76.35
14117;BME280;7137;51.436;6.544;2023-01-30T14:20:35;101470.56;;;7.98;77.00
14117;BME280;7137;51.436;6.544;2023-01-30T14:23:40;101475.72;;;8.01;76.39
14117;BME280;7137;51.436;6.544;2023-01-30T14:27:22;101480.06;;;8.04;75.89
14117;BME280;7137;51.436;6.544;2023-01-30T14:30:35;101489.53;;;8.11;76.01
14117;BME280;7137;51.436;6.544;2023-01-30T14:33:47;101493.84;;;8.14;75.17
14117;BME280;7137;51.436;6.544;2023-01-30T14:36:50;101487.78;;;8.13;74.07
14117;BME280;7137;51.436;6.544;2023-01-30T14:39:55;101490.38;;;8.15;74.69
14117;BME280;7137;51.436;6.544;2023-01-30T14:46:45;101500.75;;;8.16;74.47
14117;BME280;7137;51.436;6.544;2023-01-30T14:49:48;101503.31;;;8.24;74.67
14117;BME280;7137;51.436;6.544;2023-01-30T14:52:54;101511.97;;;8.24;74.84
14117;BME280;7137;51.436;6.544;2023-01-30T14:56:02;101522.44;;;8.15;75.01
14117;BME280;7137;51.436;6.544;2023-01-30T14:59:07;101528.66;;;8.00;75.78
14117;BME280;7137;51.436;6.544;2023-01-30T15:02:19;101535.66;;;7.88;77.21
14117;BME280;7137;51.436;6.544;2023-01-30T15:05:29;101547.81;;;7.86;77.03
14117;BME280;7137;51.436;6.544;2023-01-30T15:08:32;101555.59;;;7.92;76.75
14117;BME280;7137;51.436;6.544;2023-01-30T15:11:35;101557.41;;;7.82;77.46
14117;BME280;7137;51.436;6.544;2023-01-30T15:14:44;101560.91;;;7.77;77.87
14117;BME280;7137;51.436;6.544;2023-01-30T15:17:59;101561.81;;;7.69;77.56
14117;BME280;7137;51.436;6.544;2023-01-30T15:21:26;101575.66;;;7.70;78.54
14117;BME280;7137;51.436;6.544;2023-01-30T15:24:55;101580.03;;;7.65;78.08
14117;BME280;7137;51.436;6.544;2023-01-30T15:28:09;101587.88;;;7.60;78.95
14117;BME280;7137;51.436;6.544;2023-01-30T15:31:17;101588.72;;;7.59;79.24
14117;BME280;7137;51.436;6.544;2023-01-30T15:34:20;101601.78;;;7.50;79.82
14117;BME280;7137;51.436;6.544;2023-01-30T15:37:31;101600.06;;;7.48;79.50
14117;BME280;7137;51.436;6.544;2023-01-30T15:40:33;101600.94;;;7.48;79.20
14117;BME280;7137;51.436;6.544;2023-01-30T15:43:57;101604.38;;;7.53;80.43
14117;BME280;7137;51.436;6.544;2023-01-30T15:47:16;101612.16;;;7.52;79.85
14117;BME280;7137;51.436;6.544;2023-01-30T15:50:19;101613.03;;;7.51;80.77
14117;BME280;7137;51.436;6.544;2023-01-30T15:53:25;101625.22;;;7.36;81.08
14117;BME280;7137;51.436;6.544;2023-01-30T15:56:30;101620.03;;;7.35;81.01
14117;BME280;7137;51.436;6.544;2023-01-30T15:59:35;101623.53;;;7.32;80.83
14117;BME280;7137;51.436;6.544;2023-01-30T16:02:37;101628.69;;;7.31;81.60
14117;BME280;7137;51.436;6.544;2023-01-30T16:05:47;101639.09;;;7.31;81.98
14117;BME280;7137;51.436;6.544;2023-01-30T16:08:59;101640.00;;;7.25;81.78
14117;BME280;7137;51.436;6.544;2023-01-30T16:12:01;101650.38;;;7.24;81.98
14117;BME280;7137;51.436;6.544;2023-01-30T16:15:05;101658.16;;;7.30;81.02
14117;BME280;7137;51.436;6.544;2023-01-30T16:18:14;101659.03;;;7.33;81.59
14117;BME280;7137;51.436;6.544;2023-01-30T16:21:23;101673.75;;;7.37;81.95
14117;BME280;7137;51.436;6.544;2023-01-30T16:24:27;101672.88;;;7.37;81.63
14117;BME280;7137;51.436;6.544;2023-01-30T16:27:33;101675.47;;;7.37;81.02
14117;BME280;7137;51.436;6.544;2023-01-30T16:30:37;101676.34;;;7.30;81.64
14117;BME280;7137;51.436;6.544;2023-01-30T16:33:41;101673.78;;;7.25;82.21
14117;BME280;7137;51.436;6.544;2023-01-30T16:36:49;101686.75;;;7.25;81.80
14117;BME280;7137;51.436;6.544;2023-01-30T16:40:02;101691.94;;;7.27;82.77